Time;durP1;ratioP1;P1;durP2;ratioP2;P2;SDS_P1;SDS_P2;PMS_P1;PMS_P2;Temp;Humidity;BMP_temperature;BMP_pressure;BME280_temperature;BME280_humidity;BME280_pressure;Samples;Min_cycle;Max_cycle;Signal;HPM_P1;HPM_P2
2023/03/05 00:00:46;;;;;;;9.20;5.22;;;;;;;;;;8258706;28;20273;-62
2023/03/05 00:04:46;;;;;;;8.18;5.30;;;;;;;;;;8259197;28;20026;-62
2023/03/05 00:08:46;;;;;;;8.27;5.28;;;;;;;;;;8259685;28;20025;-61
2023/03/05 00:12:47;;;;;;;9.00;6.15;;;;;;;;;;8258315;28;20817;-61
2023/03/05 00:16:47;;;;;;;8.65;5.38;;;;;;;;;;8261730;28;20054;-62
2023/03/05 00:20:47;;;;;;;11.23;5.70;;;;;;;;;;8259928;28;20099;-61
2023/03/05 00:24:50;;;;;;;10.13;5.38;;;;;;;;;;8256159;28;20053;-61
2023/03/05 00:28:51;;;;;;;8.82;4.88;;;;;;;;;;8258200;28;20954;-61
2023/03/05 00:32:51;;;;;;;9.63;5.93;;;;;;;;;;8256175;28;20577;-62
2023/03/05 00:36:51;;;;;;;13.80;6.35;;;;;;;;;;8259261;28;20912;-62
2023/03/05 00:40:51;;;;;;;8.65;6.07;;;;;;;;;;8256116;28;20037;-62
2023/03/05 00:44:52;;;;;;;10.48;6.90;;;;;;;;;;8256713;28;20881;-61
2023/03/05 00:48:52;;;;;;;12.33;6.47;;;;;;;;;;8260406;28;20164;-62
2023/03/05 00:52:52;;;;;;;11.27;6.88;;;;;;;;;;8255269;28;20291;-61
2023/03/05 00:56:53;;;;;;;9.00;5.82;;;;;;;;;;8258254;28;20034;-61
2023/03/05 01:00:56;;;;;;;11.03;6.23;;;;;;;;;;8259003;28;20089;-62
2023/03/05 01:04:56;;;;;;;12.23;6.95;;;;;;;;;;8257353;28;20034;-62
2023/03/05 01:08:58;;;;;;;11.05;7.53;;;;;;;;;;8255431;28;20309;-62
2023/03/05 01:12:58;;;;;;;11.60;7.25;;;;;;;;;;8259671;28;20049;-61
2023/03/05 01:16:58;;;;;;;13.20;8.00;;;;;;;;;;8256988;28;20034;-62
2023/03/05 01:20:58;;;;;;;20.48;9.18;;;;;;;;;;8253956;28;20029;-62
2023/03/05 01:24:58;;;;;;;14.25;8.77;;;;;;;;;;8260266;28;20042;-61
2023/03/05 01:28:59;;;;;;;13.70;8.40;;;;;;;;;;8255988;28;20076;-61
2023/03/05 01:32:59;;;;;;;15.52;8.77;;;;;;;;;;8256120;28;20034;-61
2023/03/05 01:36:59;;;;;;;15.43;7.07;;;;;;;;;;8255596;28;20140;-61
2023/03/05 01:40:59;;;;;;;12.68;7.28;;;;;;;;;;8254969;28;20034;-62
2023/03/05 01:45:06;;;;;;;13.57;7.80;;;;;;;;;;8257442;28;20112;-62
2023/03/05 01:49:09;;;;;;;13.88;8.13;;;;;;;;;;8257532;28;20053;-62
2023/03/05 01:53:09;;;;;;;13.82;8.38;;;;;;;;;;8256738;28;20682;-61
2023/03/05 01:57:12;;;;;;;15.25;7.93;;;;;;;;;;8255574;28;20064;-61
2023/03/05 02:01:13;;;;;;;12.07;6.78;;;;;;;;;;8255590;28;20700;-62
2023/03/05 02:05:25;;;;;;;12.75;8.18;;;;;;;;;;8254229;28;20037;-62
2023/03/05 02:09:27;;;;;;;13.73;9.00;;;;;;;;;;8255731;28;20034;-61
2023/03/05 02:13:31;;;;;;;12.98;8.43;;;;;;;;;;8255379;28;20026;-61
2023/03/05 02:17:31;;;;;;;;;;;;;;;;;;8256573;28;20064;-61
2023/03/05 02:21:36;;;;;;;14.68;9.45;;;;;;;;;;8259669;28;19913;-62
2023/03/05 02:25:36;;;;;;;12.45;8.50;;;;;;;;;;8256962;28;20028;-61
2023/03/05 02:29:37;;;;;;;13.63;8.38;;;;;;;;;;8255240;28;20570;-62
2023/03/05 02:33:37;;;;;;;13.90;7.88;;;;;;;;;;8253002;28;20085;-62
2023/03/05 02:37:38;;;;;;;13.77;9.25;;;;;;;;;;8254352;28;20030;-61
2023/03/05 02:41:38;;;;;;;15.03;8.33;;;;;;;;;;8255685;28;20021;-61
2023/03/05 02:45:38;;;;;;;12.30;8.15;;;;;;;;;;8253493;28;20305;-61
2023/03/05 02:49:38;;;;;;;11.88;7.97;;;;;;;;;;8256319;28;20109;-61
2023/03/05 02:53:38;;;;;;;10.82;6.85;;;;;;;;;;8254836;28;20480;-61
2023/03/05 02:57:39;;;;;;;17.42;8.00;;;;;;;;;;8254097;28;20034;-62
2023/03/05 03:01:39;;;;;;;14.88;8.48;;;;;;;;;;8252460;28;20311;-61
2023/03/05 03:05:39;;;;;;;16.33;8.60;;;;;;;;;;8256208;28;20026;-61
2023/03/05 03:09:39;;;;;;;14.65;9.02;;;;;;;;;;8253395;28;20033;-61
2023/03/05 03:13:40;;;;;;;13.15;8.43;;;;;;;;;;8255213;28;20026;-61
2023/03/05 03:17:40;;;;;;;14.27;9.15;;;;;;;;;;8257234;28;20026;-62
2023/03/05 03:21:40;;;;;;;15.07;9.05;;;;;;;;;;8261806;28;20026;-61
2023/03/05 03:25:41;;;;;;;17.48;9.00;;;;;;;;;;8260479;28;20140;-62
2023/03/05 03:29:41;;;;;;;11.40;7.65;;;;;;;;;;8260448;28;20030;-62
2023/03/05 03:33:41;;;;;;;14.50;8.30;;;;;;;;;;8260368;28;20068;-61
2023/03/05 03:37:42;;;;;;;18.40;9.18;;;;;;;;;;8261441;28;20037;-62
2023/03/05 03:41:49;;;;;;;12.88;8.18;;;;;;;;;;8261960;28;20030;-61
2023/03/05 03:45:49;;;;;;;14.13;8.25;;;;;;;;;;8258441;28;20055;-62
2023/03/05 03:49:52;;;;;;;12.23;8.32;;;;;;;;;;8259613;28;20034;-62
2023/03/05 03:53:52;;;;;;;13.18;8.70;;;;;;;;;;8259619;28;20068;-62
2023/03/05 03:57:52;;;;;;;13.68;8.52;;;;;;;;;;8257879;28;20029;-62
2023/03/05 04:01:53;;;;;;;14.48;8.95;;;;;;;;;;8260051;28;20041;-61
2023/03/05 04:05:53;;;;;;;14.80;8.05;;;;;;;;;;8262099;28;20025;-62
2023/03/05 04:09:53;;;;;;;17.00;9.18;;;;;;;;;;8259195;28;20032;-62
2023/03/05 04:13:53;;;;;;;20.58;8.73;;;;;;;;;;8260449;28;20064;-61
2023/03/05 04:17:53;;;;;;;15.40;8.20;;;;;;;;;;8260076;28;20038;-62
2023/03/05 04:21:54;;;;;;;10.30;7.50;;;;;;;;;;8259682;28;20501;-62
2023/03/05 04:25:54;;;;;;;11.52;7.10;;;;;;;;;;8256409;28;20029;-62
2023/03/05 04:29:54;;;;;;;10.93;6.57;;;;;;;;;;8255426;28;20033;-62
2023/03/05 04:33:54;;;;;;;9.93;6.15;;;;;;;;;;8258073;28;20041;-62
2023/03/05 04:37:54;;;;;;;14.43;7.00;;;;;;;;;;8259257;28;20038;-61
2023/03/05 04:41:55;;;;;;;13.75;6.93;;;;;;;;;;8259098;28;20065;-62
2023/03/05 04:45:55;;;;;;;9.93;6.00;;;;;;;;;;8257314;28;20072;-62
2023/03/05 04:49:55;;;;;;;8.95;6.10;;;;;;;;;;8256819;28;20387;-62
2023/03/05 04:53:55;;;;;;;11.88;6.03;;;;;;;;;;8258842;28;20034;-62
2023/03/05 04:57:56;;;;;;;9.23;5.53;;;;;;;;;;8257867;28;20428;-62
2023/03/05 05:01:56;;;;;;;12.05;5.80;;;;;;;;;;8256140;28;20827;-62
2023/03/05 05:05:57;;;;;;;10.30;5.50;;;;;;;;;;8257826;28;20683;-62
2023/03/05 05:09:57;;;;;;;8.23;5.15;;;;;;;;;;8258384;28;20071;-62
2023/03/05 05:13:58;;;;;;;13.90;6.10;;;;;;;;;;8257327;28;20026;-61
2023/03/05 05:17:58;;;;;;;8.65;5.07;;;;;;;;;;8257560;28;20161;-62
2023/03/05 05:21:59;;;;;;;10.20;5.47;;;;;;;;;;8256772;28;20153;-61
2023/03/05 05:26:00;;;;;;;7.93;5.03;;;;;;;;;;8258991;28;20277;-62
2023/03/05 05:30:00;;;;;;;8.00;5.05;;;;;;;;;;8256038;28;20029;-62
2023/03/05 05:34:00;;;;;;;10.00;4.80;;;;;;;;;;8259975;28;20042;-61
2023/03/05 05:38:00;;;;;;;11.73;5.35;;;;;;;;;;8256133;28;20688;-62
2023/03/05 05:42:01;;;;;;;12.77;4.68;;;;;;;;;;8256871;28;20052;-61
2023/03/05 05:46:05;;;;;;;11.50;5.38;;;;;;;;;;8255531;28;20080;-62
2023/03/05 05:50:06;;;;;;;11.75;5.72;;;;;;;;;;8253811;28;20541;-62
2023/03/05 05:54:06;;;;;;;10.77;5.32;;;;;;;;;;8257229;28;20121;-62
2023/03/05 05:58:07;;;;;;;9.02;4.95;;;;;;;;;;8254208;28;20030;-61
2023/03/05 06:02:07;;;;;;;10.68;5.72;;;;;;;;;;8254901;28;20045;-61
2023/03/05 06:06:11;;;;;;;11.68;5.50;;;;;;;;;;8257575;28;20089;-62
2023/03/05 06:10:12;;;;;;;;;;;;;;;;;;8255564;28;20517;-62
2023/03/05 06:14:12;;;;;;;9.10;5.00;;;;;;;;;;8256762;28;19917;-61
2023/03/05 06:18:12;;;;;;;8.67;4.90;;;;;;;;;;8253093;28;20030;-62
2023/03/05 06:22:12;;;;;;;9.25;4.88;;;;;;;;;;8256481;28;20269;-62
2023/03/05 06:26:14;;;;;;;8.68;4.45;;;;;;;;;;8255652;28;20042;-61
2023/03/05 06:30:15;;;;;;;9.32;4.65;;;;;;;;;;8254961;28;20049;-62
2023/03/05 06:34:15;;;;;;;7.82;4.28;;;;;;;;;;8257845;28;20021;-62
2023/03/05 06:38:15;;;;;;;10.35;5.00;;;;;;;;;;8255427;28;20030;-62
2023/03/05 06:42:18;;;;;;;9.18;4.47;;;;;;;;;;8256965;28;20071;-62
2023/03/05 06:46:20;;;;;;;9.75;4.45;;;;;;;;;;8255748;28;20054;-61
2023/03/05 06:50:20;;;;;;;7.22;4.35;;;;;;;;;;8253450;28;20030;-62
2023/03/05 06:54:21;;;;;;;7.17;4.00;;;;;;;;;;8262304;28;20576;-62
2023/03/05 06:58:21;;;;;;;6.93;4.15;;;;;;;;;;8266131;28;21153;-62
2023/03/05 07:02:21;;;;;;;5.40;3.80;;;;;;;;;;8264710;28;20984;-62
2023/03/05 07:06:22;;;;;;;7.20;4.03;;;;;;;;;;8265272;28;20030;-62
2023/03/05 07:10:22;;;;;;;7.20;3.55;;;;;;;;;;8264654;28;20813;-62
2023/03/05 07:14:22;;;;;;;8.82;4.13;;;;;;;;;;8266043;28;20018;-61
2023/03/05 07:18:22;;;;;;;6.95;3.58;;;;;;;;;;8266671;28;20060;-62
2023/03/05 07:22:23;;;;;;;6.03;3.43;;;;;;;;;;8268355;28;20029;-62
2023/03/05 07:26:23;;;;;;;9.93;4.05;;;;;;;;;;8264645;28;20287;-62
2023/03/05 07:30:23;;;;;;;6.75;3.78;;;;;;;;;;8263714;28;20045;-62
2023/03/05 07:34:23;;;;;;;7.47;3.55;;;;;;;;;;8265534;28;20033;-62
2023/03/05 07:38:24;;;;;;;8.55;3.80;;;;;;;;;;8264295;28;20859;-62
2023/03/05 07:42:24;;;;;;;9.30;3.85;;;;;;;;;;8268176;28;21091;-62
2023/03/05 07:46:26;;;;;;;8.95;4.50;;;;;;;;;;8263003;28;20046;-61
2023/03/05 07:50:26;;;;;;;10.27;4.38;;;;;;;;;;8263104;28;20040;-62
2023/03/05 07:54:26;;;;;;;8.18;4.35;;;;;;;;;;8262818;28;20120;-62
2023/03/05 07:58:26;;;;;;;7.87;4.00;;;;;;;;;;8263180;28;20022;-63
2023/03/05 08:02:26;;;;;;;10.90;4.82;;;;;;;;;;8266828;28;20276;-62
2023/03/05 08:06:27;;;;;;;10.83;4.90;;;;;;;;;;8263530;28;20033;-62
2023/03/05 08:10:27;;;;;;;7.25;4.38;;;;;;;;;;8259926;28;20363;-62
2023/03/05 08:14:27;;;;;;;10.77;4.63;;;;;;;;;;8259810;28;20790;-62
2023/03/05 08:18:27;;;;;;;8.05;4.72;;;;;;;;;;8259111;28;20160;-62
2023/03/05 08:22:28;;;;;;;7.03;4.82;;;;;;;;;;8259112;28;20548;-62
2023/03/05 08:26:29;;;;;;;7.63;4.70;;;;;;;;;;8261948;28;20030;-64
2023/03/05 08:30:29;;;;;;;10.90;5.88;;;;;;;;;;8262380;28;20038;-62
2023/03/05 08:34:30;;;;;;;8.88;4.60;;;;;;;;;;8258949;28;20038;-62
2023/03/05 08:38:30;;;;;;;10.15;5.05;;;;;;;;;;8259684;28;20783;-62
2023/03/05 08:42:30;;;;;;;8.25;4.47;;;;;;;;;;8258573;28;20441;-62
2023/03/05 08:46:30;;;;;;;13.43;5.93;;;;;;;;;;8259065;28;20692;-63
2023/03/05 08:50:30;;;;;;;12.38;5.63;;;;;;;;;;8258466;28;20167;-62
2023/03/05 08:54:31;;;;;;;7.68;4.47;;;;;;;;;;8259286;28;20773;-62
2023/03/05 08:58:32;;;;;;;9.98;4.70;;;;;;;;;;8259332;28;20618;-63
2023/03/05 09:02:32;;;;;;;7.17;4.37;;;;;;;;;;8256761;28;20051;-62
2023/03/05 09:06:33;;;;;;;8.20;4.25;;;;;;;;;;8257940;28;20276;-62
2023/03/05 09:10:33;;;;;;;8.57;4.03;;;;;;;;;;8261881;28;20029;-62
2023/03/05 09:14:33;;;;;;;8.25;4.22;;;;;;;;;;8257753;28;20715;-62
2023/03/05 09:18:35;;;;;;;6.78;4.22;;;;;;;;;;8256136;28;20121;-62
2023/03/05 09:22:35;;;;;;;5.15;3.70;;;;;;;;;;8260682;28;20026;-62
2023/03/05 09:26:35;;;;;;;8.30;4.43;;;;;;;;;;8253791;28;20605;-62
2023/03/05 09:30:35;;;;;;;5.43;3.85;;;;;;;;;;8256745;28;20061;-62
2023/03/05 09:34:36;;;;;;;6.35;3.65;;;;;;;;;;8257140;28;20029;-63
2023/03/05 09:38:38;;;;;;;7.13;3.58;;;;;;;;;;8257864;28;20034;-63
2023/03/05 09:42:38;;;;;;;7.18;3.80;;;;;;;;;;8257742;28;20025;-62
2023/03/05 09:46:55;;;;;;;6.82;3.15;;;;;;;;;;8258063;28;20100;-62
2023/03/05 09:51:03;;;;;;;6.13;3.42;;;;;;;;;;8257360;28;20069;-62
2023/03/05 09:55:08;;;;;;;5.10;3.13;;;;;;;;;;8257728;28;20109;-62
2023/03/05 09:59:08;;;;;;;5.53;3.33;;;;;;;;;;8258567;28;20477;-62
2023/03/05 10:03:17;;;;;;;5.38;3.25;;;;;;;;;;8257735;28;20076;-62
2023/03/05 10:07:24;;;;;;;3.92;2.80;;;;;;;;;;8255170;28;20860;-63
2023/03/05 10:11:39;;;;;;;6.25;2.35;;;;;;;;;;8251087;28;20049;-62
2023/03/05 10:15:50;;;;;;;3.75;2.25;;;;;;;;;;8256290;28;20044;-62
2023/03/05 10:19:50;;;;;;;2.85;2.08;;;;;;;;;;8256629;28;20361;-62
2023/03/05 10:23:57;;;;;;;4.88;2.50;;;;;;;;;;8256752;28;20084;-62
2023/03/05 10:28:04;;;;;;;5.60;3.03;;;;;;;;;;8252289;28;20031;-62
2023/03/05 10:32:17;;;;;;;6.03;3.17;;;;;;;;;;8252724;28;20156;-62
2023/03/05 10:36:32;;;;;;;6.18;3.40;;;;;;;;;;8254400;28;20039;-62
2023/03/05 10:40:45;;;;;;;5.65;3.00;;;;;;;;;;8255826;28;20033;-62
2023/03/05 10:44:46;;;;;;;5.65;3.10;;;;;;;;;;8252789;28;20044;-62
2023/03/05 10:48:53;;;;;;;3.22;2.53;;;;;;;;;;8252202;28;20463;-63
2023/03/05 10:53:06;;;;;;;5.35;3.22;;;;;;;;;;8255408;28;20033;-62
2023/03/05 10:57:15;;;;;;;8.60;3.25;;;;;;;;;;8254700;28;20034;-62
2023/03/05 11:01:15;;;;;;;6.75;3.53;;;;;;;;;;8255123;28;20127;-62
2023/03/05 11:05:34;;;;;;;3.33;2.60;;;;;;;;;;8254070;28;20080;-62
2023/03/05 11:09:34;;;;;;;5.18;2.75;;;;;;;;;;8250767;28;20824;-62
2023/03/05 11:13:36;;;;;;;6.97;3.25;;;;;;;;;;8253991;28;20053;-62
2023/03/05 11:17:38;;;;;;;7.25;3.15;;;;;;;;;;8249742;28;20037;-62
2023/03/05 11:21:38;;;;;;;4.53;3.00;;;;;;;;;;8247741;28;20028;-63
2023/03/05 11:25:57;;;;;;;4.68;3.25;;;;;;;;;;8248858;28;20122;-62
2023/03/05 11:29:58;;;;;;;6.45;3.38;;;;;;;;;;8251362;28;20789;-62
2023/03/05 11:33:58;;;;;;;5.53;3.20;;;;;;;;;;8248194;28;20069;-62
2023/03/05 11:37:59;;;;;;;7.68;4.15;;;;;;;;;;8252397;28;20033;-62
2023/03/05 11:42:02;;;;;;;5.88;3.58;;;;;;;;;;8249289;28;20118;-62
2023/03/05 11:46:03;;;;;;;5.40;3.17;;;;;;;;;;8255471;28;20052;-62
2023/03/05 11:50:10;;;;;;;4.97;3.13;;;;;;;;;;8255454;28;20022;-62
2023/03/05 11:54:14;;;;;;;5.97;3.28;;;;;;;;;;8253123;28;20033;-62
2023/03/05 11:58:15;;;;;;;;;;;;;;;;;;8256713;28;20032;-62
2023/03/05 12:02:17;;;;;;;3.92;2.83;;;;;;;;;;8256689;28;20542;-62
2023/03/05 12:06:26;;;;;;;5.05;2.95;;;;;;;;;;8254393;28;20112;-63
2023/03/05 12:10:26;;;;;;;5.47;3.00;;;;;;;;;;8255482;28;20042;-62
2023/03/05 12:14:40;;;;;;;5.38;3.15;;;;;;;;;;8256764;28;21104;-62
2023/03/05 12:18:53;;;;;;;5.50;3.60;;;;;;;;;;8255090;28;20046;-63
2023/03/05 12:22:54;;;;;;;3.92;2.80;;;;;;;;;;8257633;28;20026;-62
2023/03/05 12:27:04;;;;;;;6.90;3.97;;;;;;;;;;8257182;28;20140;-62
2023/03/05 12:31:08;;;;;;;7.28;3.78;;;;;;;;;;8252955;28;20064;-62
2023/03/05 12:35:21;;;;;;;6.00;3.20;;;;;;;;;;8254606;28;20380;-62
2023/03/05 12:39:51;;;;;;;6.50;3.30;;;;;;;;;;8251445;28;20061;-63
2023/03/05 12:44:04;;;;;;;5.97;3.33;;;;;;;;;;8243416;28;20145;-63
2023/03/05 12:48:10;;;;;;;3.88;3.10;;;;;;;;;;8251172;28;20465;-62
2023/03/05 12:52:22;;;;;;;5.38;3.60;;;;;;;;;;8254468;28;20048;-63
2023/03/05 12:56:25;;;;;;;4.20;3.08;;;;;;;;;;8256646;28;20041;-62
2023/03/05 13:00:25;;;;;;;6.65;3.33;;;;;;;;;;8252431;28;20042;-63
2023/03/05 13:04:27;;;;;;;6.43;3.33;;;;;;;;;;8258871;28;20030;-63
2023/03/05 13:08:34;;;;;;;5.90;2.95;;;;;;;;;;8255254;28;20037;-62
2023/03/05 13:12:34;;;;;;;4.95;3.13;;;;;;;;;;8254079;28;20017;-62
2023/03/05 13:16:36;;;;;;;6.70;3.55;;;;;;;;;;8253397;28;20038;-62
2023/03/05 13:20:38;;;;;;;11.57;3.38;;;;;;;;;;8255987;28;20027;-62
2023/03/05 13:24:38;;;;;;;5.82;3.03;;;;;;;;;;8254484;28;20037;-62
2023/03/05 13:28:38;;;;;;;4.97;3.00;;;;;;;;;;8256468;28;20332;-62
2023/03/05 13:32:39;;;;;;;11.23;3.22;;;;;;;;;;8251882;28;20867;-62
2023/03/05 13:36:43;;;;;;;7.00;3.33;;;;;;;;;;8254854;28;20128;-62
2023/03/05 13:40:44;;;;;;;4.32;3.05;;;;;;;;;;8254399;28;20070;-62
2023/03/05 13:45:00;;;;;;;5.65;3.20;;;;;;;;;;8254552;28;20116;-62
2023/03/05 13:49:21;;;;;;;6.53;3.10;;;;;;;;;;8253046;28;20034;-63
2023/03/05 13:53:26;;;;;;;4.70;3.13;;;;;;;;;;8250945;28;20033;-62
2023/03/05 13:57:43;;;;;;;4.18;2.72;;;;;;;;;;8250749;28;20028;-62
2023/03/05 14:01:44;;;;;;;5.97;3.28;;;;;;;;;;8252470;28;20040;-62
2023/03/05 14:05:44;;;;;;;3.63;2.80;;;;;;;;;;8255191;28;20451;-62
2023/03/05 14:09:47;;;;;;;8.97;5.50;;;;;;;;;;8250271;28;20030;-63
2023/03/05 14:13:47;;;;;;;5.35;3.55;;;;;;;;;;8251071;28;20355;-63
2023/03/05 14:17:48;;;;;;;5.30;2.90;;;;;;;;;;8246934;28;20045;-63
2023/03/05 14:21:50;;;;;;;8.55;2.85;;;;;;;;;;8253055;28;20084;-62
2023/03/05 14:25:50;;;;;;;3.22;2.63;;;;;;;;;;8253102;28;20128;-62
2023/03/05 14:29:51;;;;;;;5.53;3.00;;;;;;;;;;8250924;28;20076;-62
2023/03/05 14:33:52;;;;;;;3.83;2.42;;;;;;;;;;8252649;28;20046;-62
2023/03/05 14:37:53;;;;;;;4.47;2.00;;;;;;;;;;8252582;28;20049;-63
2023/03/05 14:41:53;;;;;;;3.45;2.20;;;;;;;;;;8249880;28;20028;-62
2023/03/05 14:45:54;;;;;;;4.13;2.30;;;;;;;;;;8252161;28;20125;-63
2023/03/05 14:49:54;;;;;;;2.60;1.80;;;;;;;;;;8252278;28;20037;-62
2023/03/05 14:53:56;;;;;;;6.03;2.30;;;;;;;;;;8250976;28;20059;-62
2023/03/05 14:58:00;;;;;;;2.72;2.30;;;;;;;;;;8251693;28;20061;-62
2023/03/05 15:02:00;;;;;;;2.97;2.10;;;;;;;;;;8250310;28;20038;-62
2023/03/05 15:06:00;;;;;;;2.75;1.90;;;;;;;;;;8253000;28;20030;-62
2023/03/05 15:10:01;;;;;;;2.80;2.00;;;;;;;;;;8248203;28;20030;-62
2023/03/05 15:14:01;;;;;;;3.28;2.17;;;;;;;;;;8252347;28;20539;-62
2023/03/05 15:18:01;;;;;;;3.78;2.22;;;;;;;;;;8255396;28;20030;-62
2023/03/05 15:22:01;;;;;;;3.88;2.30;;;;;;;;;;8255706;28;20034;-62
2023/03/05 15:26:05;;;;;;;2.78;2.05;;;;;;;;;;8252017;28;20030;-62
2023/03/05 15:30:06;;;;;;;4.30;2.50;;;;;;;;;;8251204;28;20026;-63
2023/03/05 15:34:06;;;;;;;6.07;2.47;;;;;;;;;;8257049;28;20026;-62
2023/03/05 15:38:07;;;;;;;4.07;2.57;;;;;;;;;;8248640;28;20815;-63
2023/03/05 15:42:07;;;;;;;3.30;2.33;;;;;;;;;;8251641;28;20370;-62
2023/03/05 15:46:07;;;;;;;3.03;2.00;;;;;;;;;;8249693;28;20034;-63
2023/03/05 15:50:08;;;;;;;5.18;2.30;;;;;;;;;;8248711;28;20957;-63
2023/03/05 15:54:09;;;;;;;5.85;2.45;;;;;;;;;;8250318;28;20152;-63
2023/03/05 15:58:12;;;;;;;3.28;2.35;;;;;;;;;;8248921;28;20667;-63
2023/03/05 16:02:12;;;;;;;2.57;2.27;;;;;;;;;;8250810;28;20414;-63
2023/03/05 16:06:14;;;;;;;3.88;2.45;;;;;;;;;;8250142;28;20034;-63
2023/03/05 16:10:19;;;;;;;5.28;2.40;;;;;;;;;;8249002;28;20026;-63
2023/03/05 16:14:24;;;;;;;3.20;2.20;;;;;;;;;;8249903;28;20022;-63
2023/03/05 16:18:24;;;;;;;5.75;2.60;;;;;;;;;;8253248;28;20182;-63
2023/03/05 16:22:24;;;;;;;3.70;2.25;;;;;;;;;;8252758;28;20061;-63
2023/03/05 16:26:25;;;;;;;2.20;2.00;;;;;;;;;;8255930;28;20115;-63
2023/03/05 16:30:25;;;;;;;2.50;2.05;;;;;;;;;;8257574;28;20045;-63
2023/03/05 16:34:25;;;;;;;3.03;1.95;;;;;;;;;;8254513;28;20041;-63
2023/03/05 16:38:25;;;;;;;4.05;2.13;;;;;;;;;;8256630;28;22277;-63
2023/03/05 16:42:26;;;;;;;4.70;2.47;;;;;;;;;;8256838;28;20132;-64
2023/03/05 16:46:27;;;;;;;2.05;1.85;;;;;;;;;;8251311;28;20143;-64
2023/03/05 16:50:28;;;;;;;4.38;2.20;;;;;;;;;;8258388;28;20029;-63
2023/03/05 16:54:28;;;;;;;6.00;2.93;;;;;;;;;;8254600;28;20770;-63
2023/03/05 16:58:28;;;;;;;7.20;3.90;;;;;;;;;;8254607;28;20958;-63
2023/03/05 17:02:28;;;;;;;4.05;2.20;;;;;;;;;;8257073;28;20057;-63
2023/03/05 17:06:29;;;;;;;2.45;1.92;;;;;;;;;;8255885;28;20896;-63
2023/03/05 17:10:30;;;;;;;3.03;1.92;;;;;;;;;;8253623;28;20476;-63
2023/03/05 17:14:30;;;;;;;3.53;1.55;;;;;;;;;;8254606;28;20116;-63
2023/03/05 17:18:30;;;;;;;2.45;1.80;;;;;;;;;;8248397;28;21456;-63
2023/03/05 17:22:30;;;;;;;3.08;2.05;;;;;;;;;;8243453;28;20032;-63
2023/03/05 17:26:31;;;;;;;4.23;2.30;;;;;;;;;;8245644;28;20026;-63
2023/03/05 17:30:35;;;;;;;3.20;2.10;;;;;;;;;;8244477;28;20916;-63
2023/03/05 17:34:35;;;;;;;3.13;2.40;;;;;;;;;;8244982;28;20018;-63
2023/03/05 17:38:36;;;;;;;4.90;2.25;;;;;;;;;;8245673;28;20542;-63
2023/03/05 17:42:36;;;;;;;2.22;2.00;;;;;;;;;;8236321;28;20087;-63
2023/03/05 17:46:36;;;;;;;2.10;1.70;;;;;;;;;;8241770;28;20042;-63
2023/03/05 17:50:36;;;;;;;3.13;1.90;;;;;;;;;;8244388;28;20533;-63
2023/03/05 17:54:36;;;;;;;2.85;1.80;;;;;;;;;;8244854;28;20026;-63
2023/03/05 17:58:37;;;;;;;1.60;1.50;;;;;;;;;;8242011;28;20026;-63
2023/03/05 18:02:38;;;;;;;2.10;1.90;;;;;;;;;;8243540;28;20528;-62
2023/03/05 18:06:38;;;;;;;2.00;1.48;;;;;;;;;;8244821;28;20033;-63
2023/03/05 18:10:38;;;;;;;3.75;1.67;;;;;;;;;;8242834;28;20378;-63
2023/03/05 18:14:38;;;;;;;2.38;1.60;;;;;;;;;;8244402;28;20075;-63
2023/03/05 18:18:38;;;;;;;2.65;1.88;;;;;;;;;;8241559;28;20042;-62
2023/03/05 18:22:38;;;;;;;2.88;1.70;;;;;;;;;;8244240;28;20041;-63
2023/03/05 18:26:38;;;;;;;2.40;1.70;;;;;;;;;;8242730;28;20091;-62
2023/03/05 18:30:40;;;;;;;4.28;1.85;;;;;;;;;;8241570;28;20042;-63
2023/03/05 18:34:40;;;;;;;3.08;2.00;;;;;;;;;;8243023;28;20025;-63
2023/03/05 18:38:40;;;;;;;2.90;2.08;;;;;;;;;;8241877;28;20033;-62
2023/03/05 18:42:40;;;;;;;5.32;2.47;;;;;;;;;;8242597;28;20028;-62
2023/03/05 18:46:40;;;;;;;3.95;1.90;;;;;;;;;;8244736;28;20033;-63
2023/03/05 18:50:41;;;;;;;2.85;1.80;;;;;;;;;;8241545;28;20494;-63
2023/03/05 18:54:41;;;;;;;2.45;1.80;;;;;;;;;;8244517;28;20081;-62
2023/03/05 18:58:41;;;;;;;4.40;2.03;;;;;;;;;;8240498;28;20450;-62
2023/03/05 19:02:41;;;;;;;5.05;2.70;;;;;;;;;;8243029;28;20033;-62
2023/03/05 19:06:42;;;;;;;4.82;2.70;;;;;;;;;;8242554;28;20135;-63
2023/03/05 19:10:42;;;;;;;3.03;2.08;;;;;;;;;;8242864;28;20159;-63
2023/03/05 19:14:42;;;;;;;3.13;2.40;;;;;;;;;;8242006;28;20033;-62
2023/03/05 19:18:55;;;;;;;4.07;2.40;;;;;;;;;;8238684;28;20638;-64
2023/03/05 19:22:56;;;;;;;3.55;2.20;;;;;;;;;;8243468;28;20292;-63
2023/03/05 19:26:59;;;;;;;7.10;2.85;;;;;;;;;;8243399;28;20041;-63
2023/03/05 19:30:59;;;;;;;3.17;2.50;;;;;;;;;;8233286;28;20075;-63
2023/03/05 19:35:00;;;;;;;3.88;2.58;;;;;;;;;;8211262;28;20031;-60
2023/03/05 19:39:01;;;;;;;2.33;2.05;;;;;;;;;;8209548;28;20428;-60
2023/03/05 19:43:02;;;;;;;2.80;2.33;;;;;;;;;;8210644;28;20737;-61
2023/03/05 19:47:02;;;;;;;3.55;2.53;;;;;;;;;;8205929;28;20895;-60
2023/03/05 19:51:07;;;;;;;6.88;2.95;;;;;;;;;;8203169;28;20023;-60
2023/03/05 19:55:07;;;;;;;7.05;3.13;;;;;;;;;;8208413;28;20582;-60
2023/03/05 19:59:08;;;;;;;2.67;2.17;;;;;;;;;;8207206;28;20061;-60
2023/03/05 20:03:08;;;;;;;5.60;3.28;;;;;;;;;;8211337;28;20303;-60
2023/03/05 20:07:09;;;;;;;5.00;2.83;;;;;;;;;;8214662;28;20036;-60
2023/03/05 20:11:10;;;;;;;4.20;2.50;;;;;;;;;;8212285;28;20096;-60
2023/03/05 20:15:10;;;;;;;3.60;2.80;;;;;;;;;;8215960;28;20611;-60
2023/03/05 20:19:14;;;;;;;3.08;2.78;;;;;;;;;;8214825;28;20449;-60
2023/03/05 20:23:15;;;;;;;4.85;2.97;;;;;;;;;;8204692;28;20065;-60
2023/03/05 20:27:15;;;;;;;5.45;3.28;;;;;;;;;;8213750;28;20468;-60
2023/03/05 20:31:19;;;;;;;3.80;2.88;;;;;;;;;;8211253;28;20435;-60
2023/03/05 20:35:19;;;;;;;;;;;;;;;;;;8223497;28;20628;-60
2023/03/05 20:39:19;;;;;;;3.40;2.75;;;;;;;;;;8219705;28;19962;-60
2023/03/05 20:43:21;;;;;;;3.78;2.78;;;;;;;;;;8219498;28;20030;-60
2023/03/05 20:47:34;;;;;;;5.18;2.70;;;;;;;;;;8219485;28;20038;-60
2023/03/05 20:51:36;;;;;;;4.15;2.63;;;;;;;;;;8216564;28;20088;-60
2023/03/05 20:55:36;;;;;;;4.88;2.95;;;;;;;;;;8221719;28;20141;-60
2023/03/05 20:59:36;;;;;;;5.88;3.95;;;;;;;;;;8220452;28;21021;-62
2023/03/05 21:03:37;;;;;;;6.07;3.70;;;;;;;;;;8218752;28;20747;-62
2023/03/05 21:07:37;;;;;;;3.78;3.00;;;;;;;;;;8222288;28;20037;-61
2023/03/05 21:11:38;;;;;;;7.13;3.88;;;;;;;;;;8222447;28;20534;-61
2023/03/05 21:15:38;;;;;;;6.70;3.83;;;;;;;;;;8219257;28;20058;-62
2023/03/05 21:19:38;;;;;;;4.45;3.22;;;;;;;;;;8221932;28;20181;-61
2023/03/05 21:23:38;;;;;;;4.50;2.70;;;;;;;;;;8221796;28;20122;-61
2023/03/05 21:27:39;;;;;;;3.20;2.47;;;;;;;;;;8216759;28;20030;-61
2023/03/05 21:31:39;;;;;;;4.40;2.77;;;;;;;;;;8217220;28;20281;-62
2023/03/05 21:35:39;;;;;;;4.28;2.30;;;;;;;;;;8220517;28;20308;-62
2023/03/05 21:39:39;;;;;;;3.15;2.47;;;;;;;;;;8220819;28;20741;-62
2023/03/05 21:43:40;;;;;;;5.13;2.80;;;;;;;;;;8223827;28;20125;-61
2023/03/05 21:47:41;;;;;;;4.47;2.78;;;;;;;;;;8220577;28;20037;-62
2023/03/05 21:52:01;;;;;;;4.82;2.83;;;;;;;;;;8221831;28;20035;-61
2023/03/05 21:56:22;;;;;;;3.53;2.70;;;;;;;;;;8222186;28;20056;-62
2023/03/05 22:00:22;;;;;;;3.22;2.42;;;;;;;;;;8221754;28;20036;-62
2023/03/05 22:04:23;;;;;;;2.65;2.30;;;;;;;;;;8249447;28;20022;-61
2023/03/05 22:08:23;;;;;;;3.20;2.35;;;;;;;;;;8249722;28;20445;-62
2023/03/05 22:12:39;;;;;;;4.22;2.60;;;;;;;;;;8248733;28;20029;-61
2023/03/05 22:16:39;;;;;;;3.75;2.75;;;;;;;;;;8233107;28;20149;-62
2023/03/05 22:20:39;;;;;;;3.90;2.85;;;;;;;;;;8214201;28;20045;-62
2023/03/05 22:24:39;;;;;;;2.80;2.50;;;;;;;;;;8210321;28;20676;-61
2023/03/05 22:28:41;;;;;;;5.05;2.80;;;;;;;;;;8214674;28;20639;-62
2023/03/05 22:32:41;;;;;;;5.32;2.88;;;;;;;;;;8214097;28;21131;-61
2023/03/05 22:36:41;;;;;;;3.55;2.55;;;;;;;;;;8223645;28;20033;-62
2023/03/05 22:40:42;;;;;;;6.60;2.65;;;;;;;;;;8223814;28;20025;-62
2023/03/05 22:44:43;;;;;;;4.50;2.65;;;;;;;;;;8225552;28;20038;-62
2023/03/05 22:48:43;;;;;;;4.25;2.60;;;;;;;;;;8213712;28;21021;-62
2023/03/05 22:52:43;;;;;;;6.22;2.90;;;;;;;;;;8213237;28;20076;-62
2023/03/05 22:56:43;;;;;;;6.22;2.60;;;;;;;;;;8214576;28;20186;-61
2023/03/05 23:00:44;;;;;;;2.57;2.30;;;;;;;;;;8214422;28;20121;-62
2023/03/05 23:04:56;;;;;;;4.40;2.65;;;;;;;;;;8210646;28;20343;-62
2023/03/05 23:08:56;;;;;;;4.22;3.03;;;;;;;;;;8210800;28;20030;-61
2023/03/05 23:12:57;;;;;;;3.75;2.95;;;;;;;;;;8213886;28;20423;-61
2023/03/05 23:16:57;;;;;;;3.80;2.78;;;;;;;;;;8209987;28;20151;-61
2023/03/05 23:20:58;;;;;;;4.20;2.72;;;;;;;;;;8210748;28;20026;-62
2023/03/05 23:24:58;;;;;;;4.37;3.07;;;;;;;;;;8211311;28;20566;-61
2023/03/05 23:28:58;;;;;;;5.50;3.05;;;;;;;;;;8211568;28;20697;-62
2023/03/05 23:33:01;;;;;;;4.35;2.47;;;;;;;;;;8209851;28;20404;-61
2023/03/05 23:37:01;;;;;;;4.25;3.35;;;;;;;;;;8214317;28;20104;-62
2023/03/05 23:41:05;;;;;;;6.80;3.42;;;;;;;;;;8216895;28;20026;-62
2023/03/05 23:45:06;;;;;;;5.13;3.38;;;;;;;;;;8216395;28;20490;-62
2023/03/05 23:49:06;;;;;;;9.05;3.70;;;;;;;;;;8216765;28;20604;-62
2023/03/05 23:53:07;;;;;;;3.95;2.97;;;;;;;;;;8219529;28;20034;-61
2023/03/05 23:57:07;;;;;;;4.85;3.50;;;;;;;;;;8212762;28;20030;-61
